ESOW/VST METAR and TAF weather

Enter ICAO airport designator
Station Type Date Time Source
ESOW METAR 2023/02/06 00:20 UTC NOAA

ESOW 060020Z AUTO VRB02KT 9999 NCD M06/M08 Q1035


Station Type Date Time Source
ESOW Decoded METAR 2023/02/06 00:20 UTC NOAA

Vasteras / Hasslo, Sweden (ESOW) 59-35N 016-38E 31M
Feb 05, 2023 - 07:20 PM EST / 2023.02.06 0020 UTC
Wind: Variable at 2 MPH (2 KT):0
Visibility: greater than 7 mile(s):0
Temperature: 21 F (-6 C)
Dew Point: 17 F (-8 C)
Relative Humidity: 85%
Pressure (altimeter): 30.56 in. Hg (1035 hPa)
ob: ESOW 060020Z AUTO VRB02KT 9999 NCD M06/M08 Q1035
cycle: 0

Station Type Date Time Source
ESOW TAF 2021/05/19 03:36 UTC NOAA

TAF TAF ESOW 190230Z 1903/1915 27005KT CAVOK

Example: see airport list